Time;durP1;ratioP1;P1;durP2;ratioP2;P2;SDS_P1;SDS_P2;PMS_P1;PMS_P2;Temp;Humidity;BMP_temperature;BMP_pressure;BME280_temperature;BME280_humidity;BME280_pressure;Samples;Min_cycle;Max_cycle;Signal;HPM_P1;HPM_P2
2022/12/28 00:04:25;;;;;;;2.30;1.70;;;;;;;20.46;49.55;101585.78;20915064;28;20045;-81
2022/12/28 00:14:26;;;;;;;2.75;1.65;;;;;;;20.43;49.80;101583.31;20914426;28;20029;-81
2022/12/28 00:24:26;;;;;;;2.00;1.40;;;;;;;20.40;49.49;101579.06;20912390;28;20047;-82
2022/12/28 00:34:27;;;;;;;2.25;1.63;;;;;;;20.40;49.52;101588.75;20912211;28;20440;-82
2022/12/28 00:44:27;;;;;;;2.20;1.42;;;;;;;20.38;49.62;101593.25;20913978;28;20590;-81
2022/12/28 00:54:28;;;;;;;1.70;1.50;;;;;;;20.36;49.66;101601.22;20910247;28;20051;-81
2022/12/28 01:04:28;;;;;;;1.60;1.45;;;;;;;20.35;49.43;101615.31;20903754;28;20044;-82
2022/12/28 01:14:28;;;;;;;1.85;1.52;;;;;;;20.33;49.29;101618.94;20910114;28;20036;-81
2022/12/28 01:24:29;;;;;;;1.75;1.50;;;;;;;20.29;49.42;101618.25;20911334;28;20044;-82
2022/12/28 01:34:29;;;;;;;2.95;1.90;;;;;;;20.28;49.39;101614.78;20909224;28;20029;-82
2022/12/28 01:44:38;;;;;;;2.38;1.73;;;;;;;20.26;49.34;101605.28;20909879;28;20533;-81
2022/12/28 01:55:00;;;;;;;3.70;2.10;;;;;;;20.23;49.45;101584.41;20913493;28;20049;-81
2022/12/28 02:05:01;;;;;;;2.70;2.00;;;;;;;20.21;49.41;101587.09;20910967;28;20049;-82
2022/12/28 02:15:03;;;;;;;2.75;2.28;;;;;;;20.19;49.48;101594.25;20882421;28;20094;-81
2022/12/28 02:25:37;;;;;;;3.00;2.30;;;;;;;20.16;49.34;101607.53;20917205;28;20056;-83
2022/12/28 02:35:54;;;;;;;2.55;2.00;;;;;;;20.14;49.22;101597.13;20908037;28;20037;-82
2022/12/28 02:56:25;;;;;;;3.22;2.38;;;;;;;20.10;48.98;101587.72;20921056;28;20069;-82
2022/12/28 03:37:49;;;;;;;3.85;2.67;;;;;;;20.04;48.91;101568.78;20914317;28;20499;-81
2022/12/28 03:47:51;;;;;;;4.03;2.88;;;;;;;20.02;49.00;101557.47;20914746;28;20080;-81
2022/12/28 03:57:51;;;;;;;3.42;2.70;;;;;;;19.99;48.82;101554.09;20899624;28;20048;-81
2022/12/28 04:07:52;;;;;;;3.53;2.58;;;;;;;19.97;48.90;101539.34;20915291;28;20549;-81
2022/12/28 04:17:53;;;;;;;4.20;2.70;;;;;;;19.95;48.63;101528.88;20896114;28;20281;-81
2022/12/28 04:27:53;;;;;;;5.78;3.00;;;;;;;19.93;48.98;101516.75;20913837;28;20033;-81
2022/12/28 04:37:53;;;;;;;4.28;3.20;;;;;;;19.93;48.71;101517.63;20896075;28;20044;-81
2022/12/28 04:47:57;;;;;;;4.47;3.20;;;;;;;19.89;48.88;101523.97;20893537;28;20049;-81
2022/12/28 04:57:58;;;;;;;3.83;2.95;;;;;;;19.89;48.75;101533.63;20904998;28;20045;-81
2022/12/28 05:08:02;;;;;;;4.22;3.08;;;;;;;19.87;48.85;101535.50;20914355;28;20071;-81
2022/12/28 05:18:03;;;;;;;4.68;3.05;;;;;;;19.83;48.77;101535.69;20911718;28;21759;-81
2022/12/28 05:28:04;;;;;;;6.32;3.80;;;;;;;19.82;48.70;101536.56;20913239;28;20048;-80
2022/12/28 05:38:04;;;;;;;6.00;3.72;;;;;;;19.79;48.66;101520.94;20896467;28;20048;-81
2022/12/28 05:48:04;;;;;;;4.35;3.20;;;;;;;19.78;48.87;101516.63;20914425;28;20067;-81
2022/12/28 05:58:05;;;;;;;4.38;3.13;;;;;;;19.76;48.51;101530.78;20922699;28;20041;-81
2022/12/28 06:08:05;;;;;;;5.78;3.90;;;;;;;19.73;48.75;101534.41;20920498;28;20415;-82
2022/12/28 06:18:06;;;;;;;4.72;3.30;;;;;;;19.71;48.66;101538.06;20922804;28;20057;-82
2022/12/28 06:28:06;;;;;;;5.18;3.28;;;;;;;19.69;48.46;101546.03;20924021;28;20080;-82
2022/12/28 06:38:07;;;;;;;4.80;3.35;;;;;;;19.69;48.58;101548.66;20919761;28;20710;-81
2022/12/28 06:48:07;;;;;;;5.28;3.60;;;;;;;19.68;48.49;101544.34;20922870;28;20079;-81
2022/12/28 06:58:08;;;;;;;5.15;3.42;;;;;;;19.68;48.08;101552.22;20914748;28;20049;-81
2022/12/28 07:08:08;;;;;;;4.38;3.35;;;;;;;19.67;48.33;101558.41;20917001;28;20037;-81
2022/12/28 07:18:09;;;;;;;5.75;3.53;;;;;;;19.67;48.25;101561.03;20898144;28;20076;-81
2022/12/28 07:28:09;;;;;;;6.70;3.63;;;;;;;19.65;48.13;101555.00;20918621;28;20112;-81
2022/12/28 07:38:11;;;;;;;4.82;3.53;;;;;;;19.64;48.12;101543.63;20916999;28;20045;-81
2022/12/28 07:48:12;;;;;;;6.10;4.03;;;;;;;19.64;47.94;101554.16;20910874;28;20064;-81
2022/12/28 07:58:12;;;;;;;4.90;3.85;;;;;;;19.63;48.12;101556.88;20910049;28;20459;-81
2022/12/28 08:08:14;;;;;;;5.78;3.30;;;;;;;19.64;48.00;101563.78;20908716;28;20044;-81
2022/12/28 08:18:14;;;;;;;5.47;3.33;;;;;;;19.63;48.33;101555.06;20904537;28;20049;-81
2022/12/28 08:28:15;;;;;;;4.32;3.42;;;;;;;19.64;48.32;101553.28;20892421;28;20610;-81
2022/12/28 08:38:15;;;;;;;4.50;3.45;;;;;;;19.66;48.28;101554.94;20908346;28;20528;-81
2022/12/28 08:48:15;;;;;;;6.18;4.00;;;;;;;19.67;47.95;101550.50;20910087;28;20598;-81
2022/12/28 08:58:17;;;;;;;4.95;3.53;;;;;;;19.68;47.83;101550.41;20901536;28;20037;-81
2022/12/28 09:08:17;;;;;;;5.30;3.65;;;;;;;19.72;47.62;101545.84;20892918;28;20072;-81
2022/12/28 09:18:18;;;;;;;4.60;3.35;;;;;;;19.77;47.56;101543.81;20902303;28;20084;-81
2022/12/28 09:28:18;;;;;;;4.70;3.42;;;;;;;19.82;47.54;101530.44;20903459;28;20049;-81
2022/12/28 09:38:19;;;;;;;4.78;3.65;;;;;;;19.83;47.68;101524.25;20899631;28;20052;-81
2022/12/28 09:48:22;;;;;;;5.07;3.40;;;;;;;19.86;47.44;101497.00;20899870;28;20044;-81
2022/12/28 09:58:23;;;;;;;4.53;3.50;;;;;;;19.91;47.38;101482.69;20897568;28;20851;-81
2022/12/28 10:08:26;;;;;;;4.00;2.97;;;;;;;19.98;47.46;101459.53;20890768;28;20739;-82
2022/12/28 10:18:27;;;;;;;4.10;3.20;;;;;;;20.05;47.33;101446.91;20898644;28;20039;-81
2022/12/28 10:28:47;;;;;;;4.13;3.08;;;;;;;20.15;47.44;101442.81;20906999;28;20115;-81
2022/12/28 10:38:51;;;;;;;4.68;3.45;;;;;;;20.15;47.32;101438.41;20906989;28;20496;-82
2022/12/28 10:48:55;;;;;;;3.97;3.30;;;;;;;20.13;46.91;101436.81;20917377;28;20067;-81
2022/12/28 10:59:22;;;;;;;4.45;3.05;;;;;;;20.10;47.19;101436.97;20904195;28;20785;-81
2022/12/28 11:09:27;;;;;;;4.90;3.28;;;;;;;20.05;47.05;101439.00;20904918;28;20159;-81
2022/12/28 11:19:27;;;;;;;4.75;3.28;;;;;;;20.01;47.21;101425.19;20915457;28;20610;-81
2022/12/28 11:29:28;;;;;;;4.78;3.22;;;;;;;19.99;47.12;101419.16;20919014;28;20072;-82
2022/12/28 11:39:31;;;;;;;4.18;2.92;;;;;;;19.97;47.09;101392.97;20897579;28;20412;-83
2022/12/28 11:49:34;;;;;;;3.72;3.00;;;;;;;19.98;47.19;101370.13;20911787;28;20045;-82
2022/12/28 11:59:35;;;;;;;3.95;3.08;;;;;;;20.02;47.26;101361.16;20895514;28;20099;-82
2022/12/28 12:09:38;;;;;;;4.25;2.88;;;;;;;20.15;47.31;101341.13;20908862;28;20041;-82
2022/12/28 12:19:45;;;;;;;3.90;2.75;;;;;;;20.24;47.07;101347.63;20912098;28;20136;-82
2022/12/28 12:29:51;;;;;;;4.53;2.85;;;;;;;20.29;47.15;101324.50;20894843;28;20040;-81
2022/12/28 12:40:14;;;;;;;4.47;2.80;;;;;;;20.27;46.81;101310.59;20906160;28;20143;-81
2022/12/28 12:50:43;;;;;;;3.97;2.80;;;;;;;20.23;46.58;101300.38;20900433;28;20041;-81
2022/12/28 13:00:55;;;;;;;2.95;2.50;;;;;;;20.18;46.74;101279.59;20863673;28;20605;-83
2022/12/28 13:10:56;;;;;;;4.30;3.03;;;;;;;20.17;46.71;101274.44;20902576;28;20460;-82
2022/12/28 13:20:59;;;;;;;3.75;2.80;;;;;;;20.15;46.58;101262.22;20898101;28;20419;-84
2022/12/28 13:31:35;;;;;;;3.42;2.40;;;;;;;20.13;46.53;101264.09;20878897;28;20064;-82
2022/12/28 13:41:36;;;;;;;3.53;2.50;;;;;;;20.14;46.52;101263.16;20888781;28;20048;-81
2022/12/28 13:51:39;;;;;;;3.45;2.53;;;;;;;20.13;46.44;101223.81;20894496;28;20056;-82
2022/12/28 14:01:44;;;;;;;3.33;2.20;;;;;;;20.11;46.69;101209.91;20897900;28;20055;-81
2022/12/28 14:11:46;;;;;;;2.75;2.33;;;;;;;20.07;46.38;101209.25;20901908;28;20119;-82
2022/12/28 14:21:47;;;;;;;3.60;2.42;;;;;;;20.02;46.48;101219.19;20926094;28;20063;-82
2022/12/28 14:31:47;;;;;;;2.45;2.15;;;;;;;19.98;46.81;101205.38;20926342;28;20091;-81
2022/12/28 14:41:48;;;;;;;2.88;2.20;;;;;;;19.96;47.02;101193.28;20924670;28;20104;-81
2022/12/28 14:51:49;;;;;;;2.95;2.03;;;;;;;19.93;46.77;101181.16;20926185;28;20049;-81
2022/12/28 15:01:51;;;;;;;2.78;2.22;;;;;;;19.91;46.97;101193.53;20923318;28;20128;-83
2022/12/28 15:12:12;;;;;;;2.25;1.95;;;;;;;19.87;47.15;101212.19;20922024;28;20060;-82
2022/12/28 15:22:12;;;;;;;2.45;1.88;;;;;;;19.82;46.95;101220.31;20919054;28;20616;-82
2022/12/28 15:32:13;;;;;;;2.10;1.80;;;;;;;19.81;47.25;101219.47;20900608;28;20456;-82
2022/12/28 15:42:13;;;;;;;2.78;2.08;;;;;;;19.78;47.20;101218.81;20901201;28;20051;-81
2022/12/28 15:52:14;;;;;;;3.50;2.13;;;;;;;19.76;47.21;101199.66;20912508;28;20041;-81
2022/12/28 16:02:15;;;;;;;3.13;2.05;;;;;;;19.75;47.52;101206.72;20921781;28;20049;-81
2022/12/28 16:12:16;;;;;;;3.13;2.03;;;;;;;19.71;47.35;101202.53;20917226;28;20040;-82
2022/12/28 16:22:16;;;;;;;3.13;2.20;;;;;;;19.68;47.43;101192.22;20919620;28;20527;-82
2022/12/28 16:32:16;;;;;;;2.33;1.90;;;;;;;19.67;47.34;101211.56;20922789;28;20040;-81
2022/12/28 16:42:17;;;;;;;2.22;1.75;;;;;;;19.65;47.36;101198.50;20918744;28;20044;-81
2022/12/28 16:52:17;;;;;;;2.60;2.10;;;;;;;19.64;47.31;101198.56;20903210;28;20134;-81
2022/12/28 17:02:18;;;;;;;2.45;2.00;;;;;;;19.62;47.33;101195.22;20893989;28;20060;-80
2022/12/28 17:12:18;;;;;;;2.92;1.90;;;;;;;19.61;47.34;101193.53;20892392;28;20072;-81
2022/12/28 17:22:20;;;;;;;2.70;1.98;;;;;;;19.57;46.77;101179.72;20911664;28;20072;-81
2022/12/28 17:32:25;;;;;;;3.55;1.95;;;;;;;19.57;47.52;101177.09;20911010;28;20041;-80
2022/12/28 17:42:26;;;;;;;2.17;1.98;;;;;;;19.55;47.07;101167.59;20916691;28;20060;-81
2022/12/28 17:52:26;;;;;;;2.75;1.80;;;;;;;19.54;47.73;101171.16;20895101;28;20040;-81
2022/12/28 18:02:27;;;;;;;2.85;2.00;;;;;;;19.55;47.20;101157.09;20908100;28;20037;-81
2022/12/28 18:12:27;;;;;;;2.80;2.00;;;;;;;19.50;47.11;101150.31;20896543;28;20415;-82
2022/12/28 18:22:28;;;;;;;4.03;1.95;;;;;;;19.48;47.26;101140.84;20905187;28;20048;-81
2022/12/28 18:32:28;;;;;;;2.72;2.20;;;;;;;19.47;47.16;101126.00;20888322;28;20037;-81
2022/12/28 18:42:29;;;;;;;2.80;2.10;;;;;;;19.46;47.28;101133.06;20908120;28;20444;-81
2022/12/28 18:52:38;;;;;;;2.70;2.03;;;;;;;19.44;47.25;101142.78;20908557;28;20060;-81
2022/12/28 19:02:39;;;;;;;2.88;1.98;;;;;;;19.42;47.11;101138.56;20924500;28;20106;-81
2022/12/28 19:12:41;;;;;;;3.33;2.00;;;;;;;19.41;47.11;101152.63;20921496;28;20033;-81
2022/12/28 19:22:41;;;;;;;2.58;1.92;;;;;;;19.37;47.25;101146.69;20923483;28;20274;-81
2022/12/28 19:32:42;;;;;;;2.22;1.90;;;;;;;19.36;47.29;101158.16;20925179;28;20043;-81
2022/12/28 19:42:43;;;;;;;2.80;2.10;;;;;;;19.34;47.12;101142.47;20916281;28;20285;-82
2022/12/28 19:52:43;;;;;;;2.70;2.10;;;;;;;19.33;47.38;101132.06;20919796;28;20276;-81
2022/12/28 20:02:44;;;;;;;2.75;2.13;;;;;;;19.32;47.45;101133.00;20892760;28;20048;-81
2022/12/28 20:12:44;;;;;;;3.60;2.45;;;;;;;19.30;47.29;101129.63;20914617;28;20071;-82
2022/12/28 20:22:46;;;;;;;3.33;2.30;;;;;;;19.28;47.15;101126.25;20915119;28;20056;-81
2022/12/28 20:32:46;;;;;;;3.10;2.13;;;;;;;19.26;47.35;101110.59;20904230;28;20041;-81
2022/12/28 20:53:05;;;;;;;3.03;2.30;;;;;;;19.24;47.36;101101.06;20908564;28;20491;-82
2022/12/28 21:03:06;;;;;;;5.65;3.00;;;;;;;19.22;47.30;101098.53;20915647;28;20076;-81
2022/12/28 21:13:07;;;;;;;3.90;2.90;;;;;;;19.19;47.25;101104.81;20914265;28;20495;-81
2022/12/28 21:23:07;;;;;;;3.87;2.60;;;;;;;19.17;47.12;101105.84;20912624;28;20262;-82
2022/12/28 21:33:07;;;;;;;4.05;2.90;;;;;;;19.17;47.20;101105.84;20896877;28;20353;-81
2022/12/28 21:43:08;;;;;;;4.30;3.00;;;;;;;19.16;47.11;101101.53;20885401;28;20052;-80
2022/12/28 21:53:08;;;;;;;3.75;2.55;;;;;;;19.13;47.25;101083.34;20894232;28;20886;-80
2022/12/28 22:13:41;;;;;;;4.70;2.93;;;;;;;19.11;47.22;101058.94;20878315;28;20064;-81
2022/12/28 22:23:42;;;;;;;4.13;2.60;;;;;;;19.08;47.28;101062.59;20888581;28;20041;-81
2022/12/28 22:33:42;;;;;;;3.47;2.83;;;;;;;19.07;47.19;101053.03;20908726;28;20045;-81
2022/12/28 22:43:47;;;;;;;3.40;2.90;;;;;;;19.06;47.12;101037.38;20903215;28;20079;-81
2022/12/28 22:53:48;;;;;;;3.88;2.80;;;;;;;19.04;47.11;101019.94;20916352;28;20041;-81
2022/12/28 23:03:49;;;;;;;3.38;2.72;;;;;;;19.01;47.07;101011.41;20911558;28;20068;-81
2022/12/28 23:13:49;;;;;;;5.57;3.20;;;;;;;19.02;47.07;101002.59;20908085;28;20114;-80
2022/12/28 23:34:09;;;;;;;5.00;3.38;;;;;;;18.99;47.00;100974.75;20914172;28;20041;-81
2022/12/28 23:44:09;;;;;;;6.40;3.03;;;;;;;18.97;47.00;100967.88;20904588;28;20039;-80
2022/12/28 23:54:14;;;;;;;4.18;3.10;;;;;;;18.97;47.13;100973.13;20901088;28;20144;-81
